Terminal Aerodrome Forecast
Issued by NWS Sioux Falls, SD

Home | Current Version | Previous Version | Text Only | Print | Product List | Glossary Off
Versions: 1 2 3 4 5 6 7 8 9 10 11 12 13 14 15

232
FTUS43 KFSD 171739
TAFHON
TAF
KHON 171739Z 1718/1818 27004KT P6SM FEW100
     FM172000 18009KT P6SM BKN100
     FM180100 16007KT P6SM VCSH BKN080
     FM181200 16012KT P6SM SCT030 BKN050=

USA.gov is the U.S. government's official web portal to all federal, state and local government web resources and services.